sensor_id;sensor_type;location;lat;lon;timestamp;P1;durP1;ratioP1;P2;durP2;ratioP2
57889;SDS011;43707;50.184;18.966;2023-04-08T00:00:48;0.90;;;0.80;;
57889;SDS011;43707;50.184;18.966;2023-04-08T00:03:14;0.50;;;0.50;;
57889;SDS011;43707;50.184;18.966;2023-04-08T00:05:40;0.80;;;0.80;;
57889;SDS011;43707;50.184;18.966;2023-04-08T00:08:05;0.60;;;0.50;;
57889;SDS011;43707;50.184;18.966;2023-04-08T00:10:31;0.70;;;0.70;;
57889;SDS011;43707;50.184;18.966;2023-04-08T00:12:57;1.00;;;0.90;;
57889;SDS011;43707;50.184;18.966;2023-04-08T00:15:25;0.70;;;0.60;;
57889;SDS011;43707;50.184;18.966;2023-04-08T00:17:50;0.80;;;0.60;;
57889;SDS011;43707;50.184;18.966;2023-04-08T00:20:18;0.60;;;0.50;;
57889;SDS011;43707;50.184;18.966;2023-04-08T00:22:45;0.80;;;0.60;;
57889;SDS011;43707;50.184;18.966;2023-04-08T00:25:10;0.70;;;0.60;;
57889;SDS011;43707;50.184;18.966;2023-04-08T00:27:36;1.10;;;0.70;;
57889;SDS011;43707;50.184;18.966;2023-04-08T00:30:01;0.90;;;0.70;;
57889;SDS011;43707;50.184;18.966;2023-04-08T00:32:27;0.70;;;0.60;;
57889;SDS011;43707;50.184;18.966;2023-04-08T00:34:53;0.70;;;0.70;;
57889;SDS011;43707;50.184;18.966;2023-04-08T00:37:19;0.60;;;0.60;;
57889;SDS011;43707;50.184;18.966;2023-04-08T00:39:45;0.60;;;0.60;;
57889;SDS011;43707;50.184;18.966;2023-04-08T00:42:10;0.50;;;0.50;;
57889;SDS011;43707;50.184;18.966;2023-04-08T00:44:36;3.10;;;0.60;;
57889;SDS011;43707;50.184;18.966;2023-04-08T00:47:02;0.60;;;0.50;;
57889;SDS011;43707;50.184;18.966;2023-04-08T00:49:29;0.60;;;0.60;;
57889;SDS011;43707;50.184;18.966;2023-04-08T00:51:55;0.60;;;0.50;;
57889;SDS011;43707;50.184;18.966;2023-04-08T00:54:20;0.50;;;0.40;;
57889;SDS011;43707;50.184;18.966;2023-04-08T00:56:46;0.50;;;0.50;;
57889;SDS011;43707;50.184;18.966;2023-04-08T00:59:11;0.80;;;0.50;;
57889;SDS011;43707;50.184;18.966;2023-04-08T01:04:32;0.40;;;0.40;;
57889;SDS011;43707;50.184;18.966;2023-04-08T01:10:02;1.10;;;0.50;;
57889;SDS011;43707;50.184;18.966;2023-04-08T01:12:31;3.80;;;0.60;;
57889;SDS011;43707;50.184;18.966;2023-04-08T01:15:02;1.50;;;0.30;;
57889;SDS011;43707;50.184;18.966;2023-04-08T01:17:30;0.40;;;0.40;;
57889;SDS011;43707;50.184;18.966;2023-04-08T01:19:59;2.40;;;0.40;;
57889;SDS011;43707;50.184;18.966;2023-04-08T01:22:28;2.80;;;0.40;;
57889;SDS011;43707;50.184;18.966;2023-04-08T01:24:58;0.80;;;0.50;;
57889;SDS011;43707;50.184;18.966;2023-04-08T01:27:29;0.50;;;0.40;;
57889;SDS011;43707;50.184;18.966;2023-04-08T01:29:56;0.40;;;0.40;;
57889;SDS011;43707;50.184;18.966;2023-04-08T01:32:22;0.40;;;0.40;;
57889;SDS011;43707;50.184;18.966;2023-04-08T01:34:49;0.40;;;0.40;;
57889;SDS011;43707;50.184;18.966;2023-04-08T01:37:15;0.40;;;0.30;;
57889;SDS011;43707;50.184;18.966;2023-04-08T01:39:41;0.40;;;0.40;;
57889;SDS011;43707;50.184;18.966;2023-04-08T01:42:07;0.30;;;0.30;;
57889;SDS011;43707;50.184;18.966;2023-04-08T01:44:32;0.30;;;0.30;;
57889;SDS011;43707;50.184;18.966;2023-04-08T01:47:00;0.30;;;0.30;;
57889;SDS011;43707;50.184;18.966;2023-04-08T01:49:26;0.40;;;0.40;;
57889;SDS011;43707;50.184;18.966;2023-04-08T01:51:51;0.50;;;0.50;;
57889;SDS011;43707;50.184;18.966;2023-04-08T01:54:17;0.50;;;0.40;;
57889;SDS011;43707;50.184;18.966;2023-04-08T01:56:43;0.40;;;0.30;;
57889;SDS011;43707;50.184;18.966;2023-04-08T01:59:10;0.90;;;0.90;;
57889;SDS011;43707;50.184;18.966;2023-04-08T02:01:38;0.40;;;0.40;;
57889;SDS011;43707;50.184;18.966;2023-04-08T02:04:06;0.60;;;0.50;;
57889;SDS011;43707;50.184;18.966;2023-04-08T02:06:31;0.60;;;0.60;;
57889;SDS011;43707;50.184;18.966;2023-04-08T02:08:58;0.50;;;0.50;;
57889;SDS011;43707;50.184;18.966;2023-04-08T02:11:23;0.40;;;0.40;;
57889;SDS011;43707;50.184;18.966;2023-04-08T02:13:53;0.60;;;0.50;;
57889;SDS011;43707;50.184;18.966;2023-04-08T02:16:21;0.50;;;0.40;;
57889;SDS011;43707;50.184;18.966;2023-04-08T02:18:58;0.40;;;0.40;;
57889;SDS011;43707;50.184;18.966;2023-04-08T02:21:30;0.50;;;0.50;;
57889;SDS011;43707;50.184;18.966;2023-04-08T02:24:02;0.60;;;0.60;;
57889;SDS011;43707;50.184;18.966;2023-04-08T02:26:29;0.50;;;0.30;;
57889;SDS011;43707;50.184;18.966;2023-04-08T02:28:58;0.40;;;0.40;;
57889;SDS011;43707;50.184;18.966;2023-04-08T02:31:23;0.80;;;0.60;;
57889;SDS011;43707;50.184;18.966;2023-04-08T02:33:50;0.40;;;0.30;;
57889;SDS011;43707;50.184;18.966;2023-04-08T02:36:16;0.40;;;0.40;;
57889;SDS011;43707;50.184;18.966;2023-04-08T02:38:46;0.50;;;0.50;;
57889;SDS011;43707;50.184;18.966;2023-04-08T02:41:12;0.50;;;0.50;;
57889;SDS011;43707;50.184;18.966;2023-04-08T02:43:40;0.40;;;0.40;;
57889;SDS011;43707;50.184;18.966;2023-04-08T02:46:08;0.60;;;0.40;;
57889;SDS011;43707;50.184;18.966;2023-04-08T02:48:35;0.50;;;0.50;;
57889;SDS011;43707;50.184;18.966;2023-04-08T02:51:00;0.70;;;0.50;;
57889;SDS011;43707;50.184;18.966;2023-04-08T02:53:26;0.40;;;0.40;;
57889;SDS011;43707;50.184;18.966;2023-04-08T02:55:51;0.50;;;0.40;;
57889;SDS011;43707;50.184;18.966;2023-04-08T02:58:17;0.40;;;0.40;;
57889;SDS011;43707;50.184;18.966;2023-04-08T03:00:42;0.60;;;0.40;;
57889;SDS011;43707;50.184;18.966;2023-04-08T03:03:07;0.60;;;0.50;;
57889;SDS011;43707;50.184;18.966;2023-04-08T03:05:33;0.60;;;0.60;;
57889;SDS011;43707;50.184;18.966;2023-04-08T03:07:58;0.40;;;0.40;;
57889;SDS011;43707;50.184;18.966;2023-04-08T03:10:24;0.40;;;0.40;;
57889;SDS011;43707;50.184;18.966;2023-04-08T03:12:50;0.80;;;0.80;;
57889;SDS011;43707;50.184;18.966;2023-04-08T03:15:15;0.70;;;0.50;;
57889;SDS011;43707;50.184;18.966;2023-04-08T03:17:41;0.90;;;0.70;;
57889;SDS011;43707;50.184;18.966;2023-04-08T03:20:06;0.40;;;0.40;;
57889;SDS011;43707;50.184;18.966;2023-04-08T03:22:32;0.70;;;0.50;;
57889;SDS011;43707;50.184;18.966;2023-04-08T03:24:58;0.70;;;0.50;;
57889;SDS011;43707;50.184;18.966;2023-04-08T03:27:23;1.00;;;0.70;;
57889;SDS011;43707;50.184;18.966;2023-04-08T03:29:49;1.20;;;0.60;;
57889;SDS011;43707;50.184;18.966;2023-04-08T03:32:15;0.50;;;0.50;;
57889;SDS011;43707;50.184;18.966;2023-04-08T03:34:40;0.70;;;0.60;;
57889;SDS011;43707;50.184;18.966;2023-04-08T03:37:06;0.80;;;0.40;;
57889;SDS011;43707;50.184;18.966;2023-04-08T03:39:32;0.40;;;0.40;;
57889;SDS011;43707;50.184;18.966;2023-04-08T03:41:57;0.40;;;0.40;;
57889;SDS011;43707;50.184;18.966;2023-04-08T03:44:25;0.40;;;0.40;;
57889;SDS011;43707;50.184;18.966;2023-04-08T03:46:51;0.60;;;0.50;;
57889;SDS011;43707;50.184;18.966;2023-04-08T03:49:16;0.50;;;0.50;;
57889;SDS011;43707;50.184;18.966;2023-04-08T03:51:42;0.60;;;0.50;;
57889;SDS011;43707;50.184;18.966;2023-04-08T03:54:07;0.60;;;0.50;;
57889;SDS011;43707;50.184;18.966;2023-04-08T03:56:33;0.70;;;0.60;;
57889;SDS011;43707;50.184;18.966;2023-04-08T03:58:58;1.10;;;0.50;;
57889;SDS011;43707;50.184;18.966;2023-04-08T04:01:24;0.50;;;0.50;;
57889;SDS011;43707;50.184;18.966;2023-04-08T04:03:49;0.40;;;0.40;;
57889;SDS011;43707;50.184;18.966;2023-04-08T04:06:14;0.60;;;0.60;;
57889;SDS011;43707;50.184;18.966;2023-04-08T04:08:40;0.80;;;0.60;;
57889;SDS011;43707;50.184;18.966;2023-04-08T04:11:05;0.70;;;0.60;;
57889;SDS011;43707;50.184;18.966;2023-04-08T04:13:31;0.90;;;0.60;;
57889;SDS011;43707;50.184;18.966;2023-04-08T04:15:56;0.90;;;0.60;;
57889;SDS011;43707;50.184;18.966;2023-04-08T04:18:22;0.70;;;0.60;;
57889;SDS011;43707;50.184;18.966;2023-04-08T04:20:47;0.60;;;0.50;;
57889;SDS011;43707;50.184;18.966;2023-04-08T04:23:13;2.40;;;0.60;;
57889;SDS011;43707;50.184;18.966;2023-04-08T04:25:41;0.70;;;0.40;;
57889;SDS011;43707;50.184;18.966;2023-04-08T04:28:07;0.60;;;0.60;;
57889;SDS011;43707;50.184;18.966;2023-04-08T04:30:37;0.40;;;0.40;;
57889;SDS011;43707;50.184;18.966;2023-04-08T04:33:05;0.90;;;0.60;;
57889;SDS011;43707;50.184;18.966;2023-04-08T04:35:31;0.60;;;0.40;;
57889;SDS011;43707;50.184;18.966;2023-04-08T04:37:57;0.80;;;0.50;;
57889;SDS011;43707;50.184;18.966;2023-04-08T04:40:22;0.80;;;0.40;;
57889;SDS011;43707;50.184;18.966;2023-04-08T04:42:48;0.70;;;0.60;;
57889;SDS011;43707;50.184;18.966;2023-04-08T04:45:13;1.20;;;0.50;;
57889;SDS011;43707;50.184;18.966;2023-04-08T04:47:38;0.50;;;0.40;;
57889;SDS011;43707;50.184;18.966;2023-04-08T04:50:04;0.50;;;0.50;;
57889;SDS011;43707;50.184;18.966;2023-04-08T04:52:30;0.50;;;0.50;;
57889;SDS011;43707;50.184;18.966;2023-04-08T04:54:56;0.40;;;0.40;;
57889;SDS011;43707;50.184;18.966;2023-04-08T04:57:22;0.60;;;0.50;;
57889;SDS011;43707;50.184;18.966;2023-04-08T04:59:47;0.40;;;0.40;;
57889;SDS011;43707;50.184;18.966;2023-04-08T05:02:13;0.70;;;0.40;;
57889;SDS011;43707;50.184;18.966;2023-04-08T05:04:38;0.70;;;0.50;;
57889;SDS011;43707;50.184;18.966;2023-04-08T05:07:04;0.60;;;0.50;;
57889;SDS011;43707;50.184;18.966;2023-04-08T05:09:30;0.50;;;0.50;;
57889;SDS011;43707;50.184;18.966;2023-04-08T05:11:55;0.50;;;0.50;;
57889;SDS011;43707;50.184;18.966;2023-04-08T05:14:21;0.60;;;0.60;;
57889;SDS011;43707;50.184;18.966;2023-04-08T05:16:46;0.90;;;0.80;;
57889;SDS011;43707;50.184;18.966;2023-04-08T05:19:12;1.60;;;1.00;;
57889;SDS011;43707;50.184;18.966;2023-04-08T05:21:37;1.00;;;0.80;;
57889;SDS011;43707;50.184;18.966;2023-04-08T05:24:03;1.00;;;0.80;;
57889;SDS011;43707;50.184;18.966;2023-04-08T05:26:28;1.10;;;0.80;;
57889;SDS011;43707;50.184;18.966;2023-04-08T05:28:54;0.90;;;0.60;;
57889;SDS011;43707;50.184;18.966;2023-04-08T05:31:20;1.80;;;0.70;;
57889;SDS011;43707;50.184;18.966;2023-04-08T05:33:46;1.10;;;0.80;;
57889;SDS011;43707;50.184;18.966;2023-04-08T05:36:12;1.30;;;0.80;;
57889;SDS011;43707;50.184;18.966;2023-04-08T05:38:38;0.70;;;0.70;;
57889;SDS011;43707;50.184;18.966;2023-04-08T05:41:04;1.70;;;0.80;;
57889;SDS011;43707;50.184;18.966;2023-04-08T05:43:33;0.60;;;0.50;;
57889;SDS011;43707;50.184;18.966;2023-04-08T05:45:59;0.60;;;0.60;;
57889;SDS011;43707;50.184;18.966;2023-04-08T05:48:24;0.90;;;0.70;;
57889;SDS011;43707;50.184;18.966;2023-04-08T05:50:50;0.80;;;0.60;;
57889;SDS011;43707;50.184;18.966;2023-04-08T05:53:15;0.50;;;0.50;;
57889;SDS011;43707;50.184;18.966;2023-04-08T05:55:41;0.50;;;0.50;;
57889;SDS011;43707;50.184;18.966;2023-04-08T05:58:06;0.90;;;0.70;;
57889;SDS011;43707;50.184;18.966;2023-04-08T06:00:32;0.50;;;0.50;;
57889;SDS011;43707;50.184;18.966;2023-04-08T06:02:57;1.10;;;0.80;;
57889;SDS011;43707;50.184;18.966;2023-04-08T06:05:22;1.30;;;0.60;;
57889;SDS011;43707;50.184;18.966;2023-04-08T06:07:48;0.50;;;0.50;;
57889;SDS011;43707;50.184;18.966;2023-04-08T06:10:13;0.70;;;0.70;;
57889;SDS011;43707;50.184;18.966;2023-04-08T06:12:40;1.10;;;0.80;;
57889;SDS011;43707;50.184;18.966;2023-04-08T06:15:06;0.70;;;0.70;;
57889;SDS011;43707;50.184;18.966;2023-04-08T06:17:34;0.60;;;0.60;;
57889;SDS011;43707;50.184;18.966;2023-04-08T06:20:00;0.90;;;0.60;;
57889;SDS011;43707;50.184;18.966;2023-04-08T06:22:26;0.40;;;0.40;;
57889;SDS011;43707;50.184;18.966;2023-04-08T06:24:51;0.50;;;0.50;;
57889;SDS011;43707;50.184;18.966;2023-04-08T06:27:17;0.40;;;0.40;;
57889;SDS011;43707;50.184;18.966;2023-04-08T06:29:42;0.50;;;0.50;;
57889;SDS011;43707;50.184;18.966;2023-04-08T06:32:07;0.40;;;0.40;;
57889;SDS011;43707;50.184;18.966;2023-04-08T06:34:33;0.70;;;0.60;;
57889;SDS011;43707;50.184;18.966;2023-04-08T06:36:58;0.90;;;0.60;;
57889;SDS011;43707;50.184;18.966;2023-04-08T06:39:24;1.00;;;0.40;;
57889;SDS011;43707;50.184;18.966;2023-04-08T06:41:49;3.00;;;0.60;;
57889;SDS011;43707;50.184;18.966;2023-04-08T06:44:15;0.70;;;0.60;;
57889;SDS011;43707;50.184;18.966;2023-04-08T06:46:40;29.90;;;1.00;;
57889;SDS011;43707;50.184;18.966;2023-04-08T06:49:05;6.50;;;1.00;;
57889;SDS011;43707;50.184;18.966;2023-04-08T06:51:31;2.00;;;0.60;;
57889;SDS011;43707;50.184;18.966;2023-04-08T06:53:57;0.90;;;0.60;;
57889;SDS011;43707;50.184;18.966;2023-04-08T06:56:22;3.30;;;1.10;;
57889;SDS011;43707;50.184;18.966;2023-04-08T06:58:50;1.20;;;0.40;;
57889;SDS011;43707;50.184;18.966;2023-04-08T07:01:16;0.40;;;0.40;;
57889;SDS011;43707;50.184;18.966;2023-04-08T07:03:41;0.70;;;0.60;;
57889;SDS011;43707;50.184;18.966;2023-04-08T07:06:07;2.10;;;0.60;;
57889;SDS011;43707;50.184;18.966;2023-04-08T07:08:33;0.60;;;0.60;;
57889;SDS011;43707;50.184;18.966;2023-04-08T07:10:58;0.50;;;0.50;;
57889;SDS011;43707;50.184;18.966;2023-04-08T07:13:24;0.80;;;0.60;;
57889;SDS011;43707;50.184;18.966;2023-04-08T07:15:49;0.70;;;0.60;;
57889;SDS011;43707;50.184;18.966;2023-04-08T07:18:15;0.70;;;0.60;;
57889;SDS011;43707;50.184;18.966;2023-04-08T07:20:41;0.40;;;0.40;;
57889;SDS011;43707;50.184;18.966;2023-04-08T07:23:06;0.50;;;0.50;;
57889;SDS011;43707;50.184;18.966;2023-04-08T07:25:32;0.30;;;0.30;;
57889;SDS011;43707;50.184;18.966;2023-04-08T07:27:59;0.80;;;0.40;;
57889;SDS011;43707;50.184;18.966;2023-04-08T07:30:25;0.40;;;0.40;;
57889;SDS011;43707;50.184;18.966;2023-04-08T07:32:50;0.30;;;0.30;;
57889;SDS011;43707;50.184;18.966;2023-04-08T07:35:16;0.50;;;0.50;;
57889;SDS011;43707;50.184;18.966;2023-04-08T07:37:49;0.60;;;0.60;;
57889;SDS011;43707;50.184;18.966;2023-04-08T07:40:15;0.50;;;0.40;;
57889;SDS011;43707;50.184;18.966;2023-04-08T07:42:41;0.60;;;0.50;;
57889;SDS011;43707;50.184;18.966;2023-04-08T07:45:07;0.90;;;0.40;;
57889;SDS011;43707;50.184;18.966;2023-04-08T07:47:32;1.60;;;0.60;;
57889;SDS011;43707;50.184;18.966;2023-04-08T07:49:58;0.50;;;0.40;;
57889;SDS011;43707;50.184;18.966;2023-04-08T07:52:23;1.20;;;0.70;;
57889;SDS011;43707;50.184;18.966;2023-04-08T07:54:50;1.00;;;0.70;;
57889;SDS011;43707;50.184;18.966;2023-04-08T07:57:15;0.90;;;0.80;;
57889;SDS011;43707;50.184;18.966;2023-04-08T07:59:41;0.70;;;0.70;;
57889;SDS011;43707;50.184;18.966;2023-04-08T08:02:06;1.50;;;0.90;;
57889;SDS011;43707;50.184;18.966;2023-04-08T08:04:32;0.70;;;0.70;;
57889;SDS011;43707;50.184;18.966;2023-04-08T08:06:57;0.70;;;0.70;;
57889;SDS011;43707;50.184;18.966;2023-04-08T08:09:22;6.70;;;0.80;;
57889;SDS011;43707;50.184;18.966;2023-04-08T08:11:48;1.20;;;0.50;;
57889;SDS011;43707;50.184;18.966;2023-04-08T08:14:13;0.60;;;0.60;;
57889;SDS011;43707;50.184;18.966;2023-04-08T08:16:39;0.90;;;0.60;;
57889;SDS011;43707;50.184;18.966;2023-04-08T08:19:05;0.30;;;0.30;;
57889;SDS011;43707;50.184;18.966;2023-04-08T08:21:35;0.60;;;0.40;;
57889;SDS011;43707;50.184;18.966;2023-04-08T08:24:01;0.50;;;0.50;;
57889;SDS011;43707;50.184;18.966;2023-04-08T08:26:27;1.10;;;0.60;;
57889;SDS011;43707;50.184;18.966;2023-04-08T08:28:52;0.30;;;0.30;;
57889;SDS011;43707;50.184;18.966;2023-04-08T08:31:18;0.70;;;0.40;;
57889;SDS011;43707;50.184;18.966;2023-04-08T08:33:43;0.50;;;0.50;;
57889;SDS011;43707;50.184;18.966;2023-04-08T08:36:10;0.50;;;0.50;;
57889;SDS011;43707;50.184;18.966;2023-04-08T08:38:35;0.60;;;0.50;;
57889;SDS011;43707;50.184;18.966;2023-04-08T08:41:00;3.00;;;0.60;;
57889;SDS011;43707;50.184;18.966;2023-04-08T08:43:28;0.50;;;0.40;;
57889;SDS011;43707;50.184;18.966;2023-04-08T08:45:53;1.70;;;0.60;;
57889;SDS011;43707;50.184;18.966;2023-04-08T08:48:19;0.40;;;0.30;;
57889;SDS011;43707;50.184;18.966;2023-04-08T08:50:45;1.00;;;0.50;;
57889;SDS011;43707;50.184;18.966;2023-04-08T08:53:10;0.30;;;0.30;;
57889;SDS011;43707;50.184;18.966;2023-04-08T08:55:36;0.40;;;0.40;;
57889;SDS011;43707;50.184;18.966;2023-04-08T08:58:03;0.40;;;0.30;;
57889;SDS011;43707;50.184;18.966;2023-04-08T09:00:33;0.50;;;0.50;;
57889;SDS011;43707;50.184;18.966;2023-04-08T09:05:49;0.40;;;0.40;;
57889;SDS011;43707;50.184;18.966;2023-04-08T09:10:51;0.40;;;0.30;;
57889;SDS011;43707;50.184;18.966;2023-04-08T09:13:18;0.50;;;0.40;;
57889;SDS011;43707;50.184;18.966;2023-04-08T09:18:47;0.30;;;0.30;;
57889;SDS011;43707;50.184;18.966;2023-04-08T09:21:14;0.40;;;0.40;;
57889;SDS011;43707;50.184;18.966;2023-04-08T09:23:50;0.40;;;0.40;;
57889;SDS011;43707;50.184;18.966;2023-04-08T09:26:20;0.60;;;0.50;;
57889;SDS011;43707;50.184;18.966;2023-04-08T09:31:41;0.30;;;0.30;;
57889;SDS011;43707;50.184;18.966;2023-04-08T09:36:36;0.40;;;0.40;;
57889;SDS011;43707;50.184;18.966;2023-04-08T09:39:02;0.60;;;0.30;;
57889;SDS011;43707;50.184;18.966;2023-04-08T09:41:28;0.60;;;0.40;;
57889;SDS011;43707;50.184;18.966;2023-04-08T09:44:05;0.30;;;0.30;;
57889;SDS011;43707;50.184;18.966;2023-04-08T09:49:29;0.50;;;0.30;;
57889;SDS011;43707;50.184;18.966;2023-04-08T09:52:06;0.40;;;0.30;;
57889;SDS011;43707;50.184;18.966;2023-04-08T09:54:41;0.40;;;0.20;;
57889;SDS011;43707;50.184;18.966;2023-04-08T10:00:16;0.40;;;0.40;;
57889;SDS011;43707;50.184;18.966;2023-04-08T10:05:13;0.30;;;0.30;;
57889;SDS011;43707;50.184;18.966;2023-04-08T10:07:41;0.30;;;0.30;;
57889;SDS011;43707;50.184;18.966;2023-04-08T10:10:07;3.20;;;0.30;;
57889;SDS011;43707;50.184;18.966;2023-04-08T10:12:36;0.20;;;0.20;;
57889;SDS011;43707;50.184;18.966;2023-04-08T10:22:59;1.00;;;0.30;;
57889;SDS011;43707;50.184;18.966;2023-04-08T10:25:33;0.30;;;0.30;;
57889;SDS011;43707;50.184;18.966;2023-04-08T10:30:49;0.30;;;0.30;;
57889;SDS011;43707;50.184;18.966;2023-04-08T10:35:54;0.20;;;0.20;;
57889;SDS011;43707;50.184;18.966;2023-04-08T10:38:24;0.30;;;0.30;;
57889;SDS011;43707;50.184;18.966;2023-04-08T10:40:49;0.40;;;0.30;;
57889;SDS011;43707;50.184;18.966;2023-04-08T10:43:15;0.30;;;0.30;;
57889;SDS011;43707;50.184;18.966;2023-04-08T10:45:42;0.60;;;0.60;;
57889;SDS011;43707;50.184;18.966;2023-04-08T10:48:15;0.30;;;0.30;;
57889;SDS011;43707;50.184;18.966;2023-04-08T10:50:52;0.50;;;0.30;;
57889;SDS011;43707;50.184;18.966;2023-04-08T10:53:31;0.40;;;0.40;;
57889;SDS011;43707;50.184;18.966;2023-04-08T10:56:10;0.30;;;0.30;;
57889;SDS011;43707;50.184;18.966;2023-04-08T10:58:48;0.30;;;0.30;;
57889;SDS011;43707;50.184;18.966;2023-04-08T11:01:15;6.70;;;0.30;;
57889;SDS011;43707;50.184;18.966;2023-04-08T11:03:41;0.50;;;0.30;;
57889;SDS011;43707;50.184;18.966;2023-04-08T11:06:07;0.50;;;0.50;;
57889;SDS011;43707;50.184;18.966;2023-04-08T11:08:33;0.30;;;0.30;;
57889;SDS011;43707;50.184;18.966;2023-04-08T11:10:59;0.30;;;0.30;;
57889;SDS011;43707;50.184;18.966;2023-04-08T11:13:27;0.40;;;0.40;;
57889;SDS011;43707;50.184;18.966;2023-04-08T11:15:59;0.50;;;0.40;;
57889;SDS011;43707;50.184;18.966;2023-04-08T11:18:26;0.40;;;0.40;;
57889;SDS011;43707;50.184;18.966;2023-04-08T11:20:52;0.40;;;0.40;;
57889;SDS011;43707;50.184;18.966;2023-04-08T11:23:18;0.30;;;0.30;;
57889;SDS011;43707;50.184;18.966;2023-04-08T11:25:44;0.40;;;0.40;;
57889;SDS011;43707;50.184;18.966;2023-04-08T11:28:11;0.50;;;0.30;;
57889;SDS011;43707;50.184;18.966;2023-04-08T11:30:37;0.50;;;0.50;;
57889;SDS011;43707;50.184;18.966;2023-04-08T11:33:04;0.40;;;0.40;;
57889;SDS011;43707;50.184;18.966;2023-04-08T11:35:30;0.40;;;0.40;;
57889;SDS011;43707;50.184;18.966;2023-04-08T11:37:56;0.40;;;0.30;;
57889;SDS011;43707;50.184;18.966;2023-04-08T11:40:22;0.50;;;0.40;;
57889;SDS011;43707;50.184;18.966;2023-04-08T11:42:49;0.40;;;0.40;;
57889;SDS011;43707;50.184;18.966;2023-04-08T11:45:15;0.50;;;0.50;;
57889;SDS011;43707;50.184;18.966;2023-04-08T11:47:42;0.30;;;0.30;;
57889;SDS011;43707;50.184;18.966;2023-04-08T11:50:08;0.50;;;0.50;;
57889;SDS011;43707;50.184;18.966;2023-04-08T11:55:21;0.30;;;0.30;;
57889;SDS011;43707;50.184;18.966;2023-04-08T11:57:51;0.60;;;0.60;;
57889;SDS011;43707;50.184;18.966;2023-04-08T12:00:18;0.60;;;0.60;;
57889;SDS011;43707;50.184;18.966;2023-04-08T12:02:45;0.50;;;0.50;;
57889;SDS011;43707;50.184;18.966;2023-04-08T12:05:13;0.30;;;0.30;;
57889;SDS011;43707;50.184;18.966;2023-04-08T12:07:40;0.50;;;0.50;;
57889;SDS011;43707;50.184;18.966;2023-04-08T12:10:06;0.50;;;0.50;;
57889;SDS011;43707;50.184;18.966;2023-04-08T12:12:32;0.50;;;0.50;;
57889;SDS011;43707;50.184;18.966;2023-04-08T12:14:57;0.40;;;0.40;;
57889;SDS011;43707;50.184;18.966;2023-04-08T12:17:23;0.60;;;0.60;;
57889;SDS011;43707;50.184;18.966;2023-04-08T12:19:48;0.80;;;0.50;;
57889;SDS011;43707;50.184;18.966;2023-04-08T12:22:14;1.40;;;0.30;;
57889;SDS011;43707;50.184;18.966;2023-04-08T12:24:40;3.30;;;0.40;;
57889;SDS011;43707;50.184;18.966;2023-04-08T12:27:06;0.50;;;0.40;;
57889;SDS011;43707;50.184;18.966;2023-04-08T12:29:31;0.50;;;0.50;;
57889;SDS011;43707;50.184;18.966;2023-04-08T12:31:57;0.50;;;0.50;;
57889;SDS011;43707;50.184;18.966;2023-04-08T12:34:23;1.90;;;0.60;;
57889;SDS011;43707;50.184;18.966;2023-04-08T12:36:48;0.40;;;0.40;;
57889;SDS011;43707;50.184;18.966;2023-04-08T12:39:14;0.40;;;0.30;;
57889;SDS011;43707;50.184;18.966;2023-04-08T12:41:39;0.50;;;0.50;;
57889;SDS011;43707;50.184;18.966;2023-04-08T12:44:05;0.50;;;0.50;;
57889;SDS011;43707;50.184;18.966;2023-04-08T12:46:30;0.50;;;0.50;;
57889;SDS011;43707;50.184;18.966;2023-04-08T12:48:56;0.80;;;0.60;;
57889;SDS011;43707;50.184;18.966;2023-04-08T12:51:22;0.60;;;0.50;;
57889;SDS011;43707;50.184;18.966;2023-04-08T12:53:47;2.60;;;0.60;;
57889;SDS011;43707;50.184;18.966;2023-04-08T12:56:13;0.60;;;0.60;;
57889;SDS011;43707;50.184;18.966;2023-04-08T12:58:38;0.40;;;0.40;;
57889;SDS011;43707;50.184;18.966;2023-04-08T13:01:03;1.80;;;0.40;;
57889;SDS011;43707;50.184;18.966;2023-04-08T13:03:30;0.90;;;0.50;;
57889;SDS011;43707;50.184;18.966;2023-04-08T13:05:56;1.70;;;0.50;;
57889;SDS011;43707;50.184;18.966;2023-04-08T13:08:23;0.60;;;0.60;;
57889;SDS011;43707;50.184;18.966;2023-04-08T13:10:49;0.60;;;0.50;;
57889;SDS011;43707;50.184;18.966;2023-04-08T13:13:14;2.00;;;0.50;;
57889;SDS011;43707;50.184;18.966;2023-04-08T13:15:40;0.60;;;0.50;;
57889;SDS011;43707;50.184;18.966;2023-04-08T13:18:05;0.40;;;0.40;;
57889;SDS011;43707;50.184;18.966;2023-04-08T13:20:30;0.70;;;0.50;;
57889;SDS011;43707;50.184;18.966;2023-04-08T13:22:57;0.70;;;0.60;;
57889;SDS011;43707;50.184;18.966;2023-04-08T13:25:24;2.00;;;0.50;;
57889;SDS011;43707;50.184;18.966;2023-04-08T13:27:50;0.50;;;0.50;;
57889;SDS011;43707;50.184;18.966;2023-04-08T13:30:15;0.70;;;0.40;;
57889;SDS011;43707;50.184;18.966;2023-04-08T13:32:40;0.80;;;0.70;;
57889;SDS011;43707;50.184;18.966;2023-04-08T13:35:06;1.10;;;0.60;;
57889;SDS011;43707;50.184;18.966;2023-04-08T13:37:32;0.80;;;0.60;;
57889;SDS011;43707;50.184;18.966;2023-04-08T13:39:57;0.80;;;0.80;;
57889;SDS011;43707;50.184;18.966;2023-04-08T13:42:22;1.50;;;0.60;;
57889;SDS011;43707;50.184;18.966;2023-04-08T13:44:48;0.90;;;0.70;;
57889;SDS011;43707;50.184;18.966;2023-04-08T13:47:13;1.90;;;0.70;;
57889;SDS011;43707;50.184;18.966;2023-04-08T13:49:39;0.60;;;0.60;;
57889;SDS011;43707;50.184;18.966;2023-04-08T13:52:05;0.60;;;0.60;;
57889;SDS011;43707;50.184;18.966;2023-04-08T13:54:30;0.80;;;0.70;;
57889;SDS011;43707;50.184;18.966;2023-04-08T13:56:56;0.60;;;0.60;;
57889;SDS011;43707;50.184;18.966;2023-04-08T13:59:21;1.70;;;0.80;;
57889;SDS011;43707;50.184;18.966;2023-04-08T14:01:47;0.80;;;0.70;;
57889;SDS011;43707;50.184;18.966;2023-04-08T14:04:12;0.90;;;0.80;;
57889;SDS011;43707;50.184;18.966;2023-04-08T14:06:38;1.00;;;0.70;;
57889;SDS011;43707;50.184;18.966;2023-04-08T14:09:03;1.00;;;0.90;;
57889;SDS011;43707;50.184;18.966;2023-04-08T14:11:28;2.20;;;1.20;;
57889;SDS011;43707;50.184;18.966;2023-04-08T14:13:54;1.20;;;1.10;;
57889;SDS011;43707;50.184;18.966;2023-04-08T14:16:19;1.10;;;1.00;;
57889;SDS011;43707;50.184;18.966;2023-04-08T14:18:45;6.70;;;1.10;;
57889;SDS011;43707;50.184;18.966;2023-04-08T14:21:10;1.20;;;1.10;;
57889;SDS011;43707;50.184;18.966;2023-04-08T14:23:38;1.20;;;1.10;;
57889;SDS011;43707;50.184;18.966;2023-04-08T14:26:03;1.90;;;1.20;;
57889;SDS011;43707;50.184;18.966;2023-04-08T14:28:29;3.20;;;1.30;;
57889;SDS011;43707;50.184;18.966;2023-04-08T14:30:54;1.30;;;1.00;;
57889;SDS011;43707;50.184;18.966;2023-04-08T14:33:20;1.10;;;1.00;;
57889;SDS011;43707;50.184;18.966;2023-04-08T14:35:45;1.10;;;1.00;;
57889;SDS011;43707;50.184;18.966;2023-04-08T14:38:11;1.40;;;0.80;;
57889;SDS011;43707;50.184;18.966;2023-04-08T14:40:37;0.80;;;0.80;;
57889;SDS011;43707;50.184;18.966;2023-04-08T14:43:02;1.10;;;1.00;;
57889;SDS011;43707;50.184;18.966;2023-04-08T14:45:28;1.10;;;0.70;;
57889;SDS011;43707;50.184;18.966;2023-04-08T14:47:53;0.60;;;0.60;;
57889;SDS011;43707;50.184;18.966;2023-04-08T14:50:19;0.60;;;0.60;;
57889;SDS011;43707;50.184;18.966;2023-04-08T14:52:44;0.60;;;0.60;;
57889;SDS011;43707;50.184;18.966;2023-04-08T14:55:12;0.60;;;0.60;;
57889;SDS011;43707;50.184;18.966;2023-04-08T14:57:38;0.90;;;0.70;;
57889;SDS011;43707;50.184;18.966;2023-04-08T15:00:03;2.40;;;0.70;;
57889;SDS011;43707;50.184;18.966;2023-04-08T15:02:29;0.60;;;0.60;;
57889;SDS011;43707;50.184;18.966;2023-04-08T15:04:54;0.70;;;0.70;;
57889;SDS011;43707;50.184;18.966;2023-04-08T15:07:20;0.50;;;0.50;;
57889;SDS011;43707;50.184;18.966;2023-04-08T15:09:46;0.60;;;0.60;;
57889;SDS011;43707;50.184;18.966;2023-04-08T15:12:12;0.70;;;0.70;;